sensor_id;sensor_type;location;lat;lon;timestamp;P1;durP1;ratioP1;P2;durP2;ratioP2
50851;SDS011;43953;45.508;-122.806;2023-02-01T00:00:06;12.30;;;8.38;;
50851;SDS011;43953;45.508;-122.806;2023-02-01T00:00:39;10.85;;;7.97;;
50851;SDS011;43953;45.508;-122.806;2023-02-01T00:01:11;12.23;;;8.65;;
50851;SDS011;43953;45.508;-122.806;2023-02-01T00:01:42;11.50;;;8.60;;
50851;SDS011;43953;45.508;-122.806;2023-02-01T00:02:14;10.68;;;8.48;;
50851;SDS011;43953;45.508;-122.806;2023-02-01T00:02:46;11.73;;;9.00;;
50851;SDS011;43953;45.508;-122.806;2023-02-01T00:03:18;10.98;;;8.60;;
50851;SDS011;43953;45.508;-122.806;2023-02-01T00:03:49;13.25;;;8.98;;
50851;SDS011;43953;45.508;-122.806;2023-02-01T00:04:21;11.07;;;8.57;;
50851;SDS011;43953;45.508;-122.806;2023-02-01T00:04:53;11.02;;;8.57;;
50851;SDS011;43953;45.508;-122.806;2023-02-01T00:05:25;11.45;;;8.90;;
50851;SDS011;43953;45.508;-122.806;2023-02-01T00:05:57;13.75;;;9.40;;
50851;SDS011;43953;45.508;-122.806;2023-02-01T00:06:29;12.27;;;8.38;;
50851;SDS011;43953;45.508;-122.806;2023-02-01T00:07:01;10.70;;;8.60;;
50851;SDS011;43953;45.508;-122.806;2023-02-01T00:07:33;10.52;;;8.27;;
50851;SDS011;43953;45.508;-122.806;2023-02-01T00:08:05;12.95;;;8.43;;
50851;SDS011;43953;45.508;-122.806;2023-02-01T00:08:36;10.25;;;8.32;;
50851;SDS011;43953;45.508;-122.806;2023-02-01T00:09:08;10.07;;;8.35;;
50851;SDS011;43953;45.508;-122.806;2023-02-01T00:09:40;12.60;;;8.57;;
50851;SDS011;43953;45.508;-122.806;2023-02-01T00:10:11;14.05;;;9.00;;
50851;SDS011;43953;45.508;-122.806;2023-02-01T00:10:43;10.80;;;8.40;;
50851;SDS011;43953;45.508;-122.806;2023-02-01T00:11:15;10.75;;;8.10;;
50851;SDS011;43953;45.508;-122.806;2023-02-01T00:11:47;11.70;;;8.38;;
50851;SDS011;43953;45.508;-122.806;2023-02-01T00:12:18;10.43;;;8.00;;
50851;SDS011;43953;45.508;-122.806;2023-02-01T00:12:50;10.25;;;8.00;;
50851;SDS011;43953;45.508;-122.806;2023-02-01T00:13:22;11.82;;;8.32;;
50851;SDS011;43953;45.508;-122.806;2023-02-01T00:13:54;10.77;;;8.65;;
50851;SDS011;43953;45.508;-122.806;2023-02-01T00:14:26;12.05;;;8.50;;
50851;SDS011;43953;45.508;-122.806;2023-02-01T00:14:57;11.57;;;8.27;;
50851;SDS011;43953;45.508;-122.806;2023-02-01T00:15:29;11.98;;;8.70;;
50851;SDS011;43953;45.508;-122.806;2023-02-01T00:16:02;9.93;;;8.43;;
50851;SDS011;43953;45.508;-122.806;2023-02-01T00:16:45;11.93;;;8.27;;
50851;SDS011;43953;45.508;-122.806;2023-02-01T00:17:16;11.90;;;8.98;;
50851;SDS011;43953;45.508;-122.806;2023-02-01T00:17:52;10.40;;;8.05;;
50851;SDS011;43953;45.508;-122.806;2023-02-01T00:18:25;10.93;;;8.55;;
50851;SDS011;43953;45.508;-122.806;2023-02-01T00:19:13;11.38;;;8.60;;
50851;SDS011;43953;45.508;-122.806;2023-02-01T00:19:45;10.82;;;8.73;;
50851;SDS011;43953;45.508;-122.806;2023-02-01T00:20:17;11.25;;;8.43;;
50851;SDS011;43953;45.508;-122.806;2023-02-01T00:20:49;11.95;;;8.43;;
50851;SDS011;43953;45.508;-122.806;2023-02-01T00:21:20;12.70;;;8.43;;
50851;SDS011;43953;45.508;-122.806;2023-02-01T00:21:52;11.32;;;8.25;;
50851;SDS011;43953;45.508;-122.806;2023-02-01T00:22:24;12.18;;;9.00;;
50851;SDS011;43953;45.508;-122.806;2023-02-01T00:22:56;11.68;;;8.15;;
50851;SDS011;43953;45.508;-122.806;2023-02-01T00:23:27;11.32;;;7.82;;
50851;SDS011;43953;45.508;-122.806;2023-02-01T00:23:59;10.40;;;8.35;;
50851;SDS011;43953;45.508;-122.806;2023-02-01T00:24:31;12.40;;;7.97;;
50851;SDS011;43953;45.508;-122.806;2023-02-01T00:25:02;11.90;;;8.27;;
50851;SDS011;43953;45.508;-122.806;2023-02-01T00:25:34;10.32;;;8.13;;
50851;SDS011;43953;45.508;-122.806;2023-02-01T00:26:07;10.48;;;8.55;;
50851;SDS011;43953;45.508;-122.806;2023-02-01T00:26:45;13.07;;;7.68;;
50851;SDS011;43953;45.508;-122.806;2023-02-01T00:27:17;10.48;;;8.52;;
50851;SDS011;43953;45.508;-122.806;2023-02-01T00:27:51;9.85;;;8.07;;
50851;SDS011;43953;45.508;-122.806;2023-02-01T00:28:23;11.55;;;8.65;;
50851;SDS011;43953;45.508;-122.806;2023-02-01T00:28:55;10.20;;;7.72;;
50851;SDS011;43953;45.508;-122.806;2023-02-01T00:29:26;10.55;;;8.02;;
50851;SDS011;43953;45.508;-122.806;2023-02-01T00:29:58;10.82;;;8.23;;
50851;SDS011;43953;45.508;-122.806;2023-02-01T00:30:30;12.80;;;8.35;;
50851;SDS011;43953;45.508;-122.806;2023-02-01T00:31:02;11.60;;;8.23;;
50851;SDS011;43953;45.508;-122.806;2023-02-01T00:31:35;11.25;;;8.68;;
50851;SDS011;43953;45.508;-122.806;2023-02-01T00:32:06;9.75;;;8.23;;
50851;SDS011;43953;45.508;-122.806;2023-02-01T00:32:38;11.30;;;8.13;;
50851;SDS011;43953;45.508;-122.806;2023-02-01T00:33:10;11.50;;;8.95;;
50851;SDS011;43953;45.508;-122.806;2023-02-01T00:33:41;12.10;;;8.02;;
50851;SDS011;43953;45.508;-122.806;2023-02-01T00:34:14;9.43;;;7.57;;
50851;SDS011;43953;45.508;-122.806;2023-02-01T00:34:47;10.02;;;7.90;;
50851;SDS011;43953;45.508;-122.806;2023-02-01T00:35:19;9.70;;;8.02;;
50851;SDS011;43953;45.508;-122.806;2023-02-01T00:35:51;9.68;;;7.93;;
50851;SDS011;43953;45.508;-122.806;2023-02-01T00:36:26;12.00;;;8.07;;
50851;SDS011;43953;45.508;-122.806;2023-02-01T00:36:59;12.73;;;8.40;;
50851;SDS011;43953;45.508;-122.806;2023-02-01T00:37:31;9.73;;;7.93;;
50851;SDS011;43953;45.508;-122.806;2023-02-01T00:38:02;10.73;;;8.25;;
50851;SDS011;43953;45.508;-122.806;2023-02-01T00:38:36;11.30;;;8.32;;
50851;SDS011;43953;45.508;-122.806;2023-02-01T00:39:09;9.85;;;7.88;;
50851;SDS011;43953;45.508;-122.806;2023-02-01T00:39:41;10.57;;;8.02;;
50851;SDS011;43953;45.508;-122.806;2023-02-01T00:40:13;12.20;;;8.30;;
50851;SDS011;43953;45.508;-122.806;2023-02-01T00:40:44;11.93;;;8.77;;
50851;SDS011;43953;45.508;-122.806;2023-02-01T00:41:17;11.98;;;8.80;;
50851;SDS011;43953;45.508;-122.806;2023-02-01T00:41:50;11.68;;;8.30;;
50851;SDS011;43953;45.508;-122.806;2023-02-01T00:42:23;11.13;;;8.50;;
50851;SDS011;43953;45.508;-122.806;2023-02-01T00:42:54;11.30;;;8.77;;
50851;SDS011;43953;45.508;-122.806;2023-02-01T00:43:28;10.30;;;8.20;;
50851;SDS011;43953;45.508;-122.806;2023-02-01T00:44:01;12.70;;;8.57;;
50851;SDS011;43953;45.508;-122.806;2023-02-01T00:44:33;12.85;;;8.10;;
50851;SDS011;43953;45.508;-122.806;2023-02-01T00:45:06;11.68;;;8.93;;
50851;SDS011;43953;45.508;-122.806;2023-02-01T00:45:38;12.60;;;8.77;;
50851;SDS011;43953;45.508;-122.806;2023-02-01T00:46:10;15.65;;;9.23;;
50851;SDS011;43953;45.508;-122.806;2023-02-01T00:46:42;12.32;;;9.00;;
50851;SDS011;43953;45.508;-122.806;2023-02-01T00:47:14;11.02;;;8.50;;
50851;SDS011;43953;45.508;-122.806;2023-02-01T00:47:46;12.82;;;9.40;;
50851;SDS011;43953;45.508;-122.806;2023-02-01T00:48:17;12.15;;;8.98;;
50851;SDS011;43953;45.508;-122.806;2023-02-01T00:48:49;12.05;;;8.55;;
50851;SDS011;43953;45.508;-122.806;2023-02-01T00:49:21;10.50;;;8.48;;
50851;SDS011;43953;45.508;-122.806;2023-02-01T00:49:53;12.65;;;8.90;;
50851;SDS011;43953;45.508;-122.806;2023-02-01T00:50:25;12.75;;;8.88;;
50851;SDS011;43953;45.508;-122.806;2023-02-01T00:51:00;14.32;;;8.98;;
50851;SDS011;43953;45.508;-122.806;2023-02-01T00:51:32;11.40;;;9.00;;
50851;SDS011;43953;45.508;-122.806;2023-02-01T00:52:04;11.60;;;7.95;;
50851;SDS011;43953;45.508;-122.806;2023-02-01T00:52:35;13.60;;;8.43;;
50851;SDS011;43953;45.508;-122.806;2023-02-01T00:53:08;14.65;;;8.65;;
50851;SDS011;43953;45.508;-122.806;2023-02-01T00:53:40;11.23;;;8.13;;
50851;SDS011;43953;45.508;-122.806;2023-02-01T00:54:12;12.60;;;8.50;;
50851;SDS011;43953;45.508;-122.806;2023-02-01T00:54:44;12.65;;;8.93;;
50851;SDS011;43953;45.508;-122.806;2023-02-01T00:55:16;12.13;;;8.52;;
50851;SDS011;43953;45.508;-122.806;2023-02-01T00:55:47;13.10;;;8.95;;
50851;SDS011;43953;45.508;-122.806;2023-02-01T00:56:19;11.32;;;8.30;;
50851;SDS011;43953;45.508;-122.806;2023-02-01T00:56:51;13.57;;;8.82;;
50851;SDS011;43953;45.508;-122.806;2023-02-01T00:57:23;12.98;;;8.35;;
50851;SDS011;43953;45.508;-122.806;2023-02-01T00:57:55;13.90;;;8.95;;
50851;SDS011;43953;45.508;-122.806;2023-02-01T00:58:26;15.07;;;9.57;;
50851;SDS011;43953;45.508;-122.806;2023-02-01T00:58:58;15.60;;;9.10;;
50851;SDS011;43953;45.508;-122.806;2023-02-01T00:59:30;16.00;;;10.35;;
50851;SDS011;43953;45.508;-122.806;2023-02-01T01:00:01;14.88;;;10.25;;
50851;SDS011;43953;45.508;-122.806;2023-02-01T01:00:34;14.02;;;10.38;;
50851;SDS011;43953;45.508;-122.806;2023-02-01T01:01:39;14.68;;;9.80;;
50851;SDS011;43953;45.508;-122.806;2023-02-01T01:02:11;14.68;;;9.70;;
50851;SDS011;43953;45.508;-122.806;2023-02-01T01:02:44;14.57;;;10.15;;
50851;SDS011;43953;45.508;-122.806;2023-02-01T01:03:16;14.77;;;10.13;;
50851;SDS011;43953;45.508;-122.806;2023-02-01T01:03:52;13.63;;;10.27;;
50851;SDS011;43953;45.508;-122.806;2023-02-01T01:04:25;12.80;;;9.38;;
50851;SDS011;43953;45.508;-122.806;2023-02-01T01:04:57;14.02;;;9.90;;
50851;SDS011;43953;45.508;-122.806;2023-02-01T01:05:29;17.60;;;11.32;;
50851;SDS011;43953;45.508;-122.806;2023-02-01T01:06:01;13.75;;;10.45;;
50851;SDS011;43953;45.508;-122.806;2023-02-01T01:06:36;13.00;;;9.75;;
50851;SDS011;43953;45.508;-122.806;2023-02-01T01:07:08;14.73;;;10.55;;
50851;SDS011;43953;45.508;-122.806;2023-02-01T01:07:40;11.95;;;9.77;;
50851;SDS011;43953;45.508;-122.806;2023-02-01T01:08:12;14.25;;;9.82;;
50851;SDS011;43953;45.508;-122.806;2023-02-01T01:08:44;13.88;;;10.00;;
50851;SDS011;43953;45.508;-122.806;2023-02-01T01:09:16;11.07;;;8.95;;
50851;SDS011;43953;45.508;-122.806;2023-02-01T01:09:47;13.05;;;9.98;;
50851;SDS011;43953;45.508;-122.806;2023-02-01T01:10:19;16.95;;;10.05;;
50851;SDS011;43953;45.508;-122.806;2023-02-01T01:10:51;13.93;;;9.77;;
50851;SDS011;43953;45.508;-122.806;2023-02-01T01:11:24;13.02;;;9.63;;
50851;SDS011;43953;45.508;-122.806;2023-02-01T01:11:57;14.27;;;9.98;;
50851;SDS011;43953;45.508;-122.806;2023-02-01T01:12:33;13.18;;;9.50;;
50851;SDS011;43953;45.508;-122.806;2023-02-01T01:13:05;15.98;;;10.43;;
50851;SDS011;43953;45.508;-122.806;2023-02-01T01:13:36;15.50;;;9.95;;
50851;SDS011;43953;45.508;-122.806;2023-02-01T01:14:09;14.50;;;10.15;;
50851;SDS011;43953;45.508;-122.806;2023-02-01T01:14:41;13.60;;;9.85;;
50851;SDS011;43953;45.508;-122.806;2023-02-01T01:15:13;13.90;;;10.30;;
50851;SDS011;43953;45.508;-122.806;2023-02-01T01:15:45;13.55;;;9.98;;
50851;SDS011;43953;45.508;-122.806;2023-02-01T01:16:17;12.27;;;10.23;;
50851;SDS011;43953;45.508;-122.806;2023-02-01T01:16:49;15.13;;;9.93;;
50851;SDS011;43953;45.508;-122.806;2023-02-01T01:17:21;13.20;;;9.60;;
50851;SDS011;43953;45.508;-122.806;2023-02-01T01:17:53;11.88;;;9.50;;
50851;SDS011;43953;45.508;-122.806;2023-02-01T01:18:24;13.93;;;10.27;;
50851;SDS011;43953;45.508;-122.806;2023-02-01T01:18:56;14.45;;;9.90;;
50851;SDS011;43953;45.508;-122.806;2023-02-01T01:19:29;11.73;;;9.55;;
50851;SDS011;43953;45.508;-122.806;2023-02-01T01:20:00;12.70;;;10.05;;
50851;SDS011;43953;45.508;-122.806;2023-02-01T01:20:36;13.40;;;9.68;;
50851;SDS011;43953;45.508;-122.806;2023-02-01T01:21:11;14.52;;;10.35;;
50851;SDS011;43953;45.508;-122.806;2023-02-01T01:21:44;12.85;;;9.38;;
50851;SDS011;43953;45.508;-122.806;2023-02-01T01:22:16;11.95;;;9.38;;
50851;SDS011;43953;45.508;-122.806;2023-02-01T01:22:48;11.00;;;9.57;;
50851;SDS011;43953;45.508;-122.806;2023-02-01T01:23:20;13.68;;;9.48;;
50851;SDS011;43953;45.508;-122.806;2023-02-01T01:23:52;12.43;;;9.77;;
50851;SDS011;43953;45.508;-122.806;2023-02-01T01:24:23;13.13;;;10.18;;
50851;SDS011;43953;45.508;-122.806;2023-02-01T01:24:55;12.88;;;9.60;;
50851;SDS011;43953;45.508;-122.806;2023-02-01T01:25:27;11.93;;;9.88;;
50851;SDS011;43953;45.508;-122.806;2023-02-01T01:25:59;13.43;;;9.35;;
50851;SDS011;43953;45.508;-122.806;2023-02-01T01:26:30;12.80;;;9.85;;
50851;SDS011;43953;45.508;-122.806;2023-02-01T01:27:02;13.60;;;10.40;;
50851;SDS011;43953;45.508;-122.806;2023-02-01T01:27:34;13.35;;;9.70;;
50851;SDS011;43953;45.508;-122.806;2023-02-01T01:28:06;13.10;;;10.20;;
50851;SDS011;43953;45.508;-122.806;2023-02-01T01:28:38;11.57;;;9.50;;
50851;SDS011;43953;45.508;-122.806;2023-02-01T01:29:10;12.68;;;9.77;;
50851;SDS011;43953;45.508;-122.806;2023-02-01T01:29:41;13.00;;;9.82;;
50851;SDS011;43953;45.508;-122.806;2023-02-01T01:30:13;12.75;;;9.80;;
50851;SDS011;43953;45.508;-122.806;2023-02-01T01:30:45;13.23;;;10.50;;
50851;SDS011;43953;45.508;-122.806;2023-02-01T01:31:18;16.65;;;10.23;;
50851;SDS011;43953;45.508;-122.806;2023-02-01T01:31:51;12.57;;;10.35;;
50851;SDS011;43953;45.508;-122.806;2023-02-01T01:32:22;16.30;;;10.30;;
50851;SDS011;43953;45.508;-122.806;2023-02-01T01:32:54;11.70;;;10.02;;
50851;SDS011;43953;45.508;-122.806;2023-02-01T01:33:26;12.63;;;10.15;;
50851;SDS011;43953;45.508;-122.806;2023-02-01T01:33:58;15.02;;;10.18;;
50851;SDS011;43953;45.508;-122.806;2023-02-01T01:34:31;14.05;;;10.02;;
50851;SDS011;43953;45.508;-122.806;2023-02-01T01:35:02;14.45;;;10.10;;
50851;SDS011;43953;45.508;-122.806;2023-02-01T01:35:34;14.48;;;10.13;;
50851;SDS011;43953;45.508;-122.806;2023-02-01T01:36:10;12.30;;;10.27;;
50851;SDS011;43953;45.508;-122.806;2023-02-01T01:36:43;14.57;;;10.07;;
50851;SDS011;43953;45.508;-122.806;2023-02-01T01:37:14;14.05;;;10.05;;
50851;SDS011;43953;45.508;-122.806;2023-02-01T01:37:46;12.68;;;9.80;;
50851;SDS011;43953;45.508;-122.806;2023-02-01T01:38:18;12.88;;;10.10;;
50851;SDS011;43953;45.508;-122.806;2023-02-01T01:38:49;15.13;;;10.80;;
50851;SDS011;43953;45.508;-122.806;2023-02-01T01:39:21;13.80;;;10.02;;
50851;SDS011;43953;45.508;-122.806;2023-02-01T01:39:53;12.25;;;9.40;;
50851;SDS011;43953;45.508;-122.806;2023-02-01T01:40:27;15.18;;;10.10;;
50851;SDS011;43953;45.508;-122.806;2023-02-01T01:41:00;12.82;;;9.18;;
50851;SDS011;43953;45.508;-122.806;2023-02-01T01:41:32;11.18;;;9.00;;
50851;SDS011;43953;45.508;-122.806;2023-02-01T01:42:04;11.65;;;9.40;;
50851;SDS011;43953;45.508;-122.806;2023-02-01T01:42:39;13.00;;;9.30;;
50851;SDS011;43953;45.508;-122.806;2023-02-01T01:43:13;15.50;;;9.73;;
50851;SDS011;43953;45.508;-122.806;2023-02-01T01:45:36;12.55;;;10.10;;
50851;SDS011;43953;45.508;-122.806;2023-02-01T01:46:07;17.15;;;10.20;;
50851;SDS011;43953;45.508;-122.806;2023-02-01T01:46:39;12.98;;;9.90;;
50851;SDS011;43953;45.508;-122.806;2023-02-01T01:47:11;14.05;;;10.43;;
50851;SDS011;43953;45.508;-122.806;2023-02-01T01:47:46;14.60;;;10.52;;
50851;SDS011;43953;45.508;-122.806;2023-02-01T01:48:27;13.45;;;10.02;;
50851;SDS011;43953;45.508;-122.806;2023-02-01T01:49:04;14.50;;;9.70;;
50851;SDS011;43953;45.508;-122.806;2023-02-01T01:49:40;14.95;;;10.30;;
50851;SDS011;43953;45.508;-122.806;2023-02-01T01:50:13;14.68;;;9.63;;
50851;SDS011;43953;45.508;-122.806;2023-02-01T01:50:54;13.88;;;10.18;;
50851;SDS011;43953;45.508;-122.806;2023-02-01T01:51:34;15.30;;;10.32;;
50851;SDS011;43953;45.508;-122.806;2023-02-01T01:52:20;15.90;;;10.52;;
50851;SDS011;43953;45.508;-122.806;2023-02-01T01:52:52;11.85;;;9.60;;
50851;SDS011;43953;45.508;-122.806;2023-02-01T01:53:29;13.65;;;9.85;;
50851;SDS011;43953;45.508;-122.806;2023-02-01T01:54:24;12.20;;;9.55;;
50851;SDS011;43953;45.508;-122.806;2023-02-01T01:55:00;13.40;;;9.20;;
50851;SDS011;43953;45.508;-122.806;2023-02-01T01:55:32;13.57;;;10.40;;
50851;SDS011;43953;45.508;-122.806;2023-02-01T01:56:08;15.18;;;9.75;;
50851;SDS011;43953;45.508;-122.806;2023-02-01T01:56:40;14.30;;;9.82;;
50851;SDS011;43953;45.508;-122.806;2023-02-01T01:57:21;13.30;;;9.85;;
50851;SDS011;43953;45.508;-122.806;2023-02-01T01:58:16;13.77;;;9.75;;
50851;SDS011;43953;45.508;-122.806;2023-02-01T01:58:50;13.05;;;9.23;;
50851;SDS011;43953;45.508;-122.806;2023-02-01T01:59:23;12.45;;;9.32;;
50851;SDS011;43953;45.508;-122.806;2023-02-01T01:59:59;12.13;;;9.40;;
50851;SDS011;43953;45.508;-122.806;2023-02-01T02:00:36;12.65;;;9.55;;
50851;SDS011;43953;45.508;-122.806;2023-02-01T02:01:09;14.65;;;9.57;;
50851;SDS011;43953;45.508;-122.806;2023-02-01T02:01:41;14.32;;;10.10;;
50851;SDS011;43953;45.508;-122.806;2023-02-01T02:02:13;13.73;;;9.45;;
50851;SDS011;43953;45.508;-122.806;2023-02-01T02:02:46;13.88;;;9.68;;
50851;SDS011;43953;45.508;-122.806;2023-02-01T02:03:25;12.35;;;10.13;;
50851;SDS011;43953;45.508;-122.806;2023-02-01T02:04:04;13.43;;;9.60;;
50851;SDS011;43953;45.508;-122.806;2023-02-01T02:04:36;13.00;;;9.85;;
50851;SDS011;43953;45.508;-122.806;2023-02-01T02:05:09;14.77;;;9.57;;
50851;SDS011;43953;45.508;-122.806;2023-02-01T02:05:42;12.80;;;9.27;;
50851;SDS011;43953;45.508;-122.806;2023-02-01T02:07:37;15.73;;;9.93;;
50851;SDS011;43953;45.508;-122.806;2023-02-01T02:08:12;15.77;;;10.23;;
50851;SDS011;43953;45.508;-122.806;2023-02-01T02:08:44;11.25;;;8.77;;
50851;SDS011;43953;45.508;-122.806;2023-02-01T02:09:16;12.35;;;10.07;;
50851;SDS011;43953;45.508;-122.806;2023-02-01T02:09:48;13.82;;;9.40;;
50851;SDS011;43953;45.508;-122.806;2023-02-01T02:10:20;13.95;;;9.45;;
50851;SDS011;43953;45.508;-122.806;2023-02-01T02:11:12;14.05;;;10.25;;
50851;SDS011;43953;45.508;-122.806;2023-02-01T02:11:47;14.02;;;9.65;;
50851;SDS011;43953;45.508;-122.806;2023-02-01T02:12:19;14.75;;;10.23;;
50851;SDS011;43953;45.508;-122.806;2023-02-01T02:12:51;13.88;;;10.23;;
50851;SDS011;43953;45.508;-122.806;2023-02-01T02:13:23;12.93;;;9.48;;
50851;SDS011;43953;45.508;-122.806;2023-02-01T02:13:55;13.65;;;9.57;;
50851;SDS011;43953;45.508;-122.806;2023-02-01T02:14:28;13.70;;;9.48;;
50851;SDS011;43953;45.508;-122.806;2023-02-01T02:15:02;14.43;;;9.63;;
50851;SDS011;43953;45.508;-122.806;2023-02-01T02:15:36;12.70;;;9.40;;
50851;SDS011;43953;45.508;-122.806;2023-02-01T02:17:49;12.70;;;8.98;;
50851;SDS011;43953;45.508;-122.806;2023-02-01T02:19:32;12.23;;;9.18;;
50851;SDS011;43953;45.508;-122.806;2023-02-01T02:20:27;12.48;;;9.52;;
50851;SDS011;43953;45.508;-122.806;2023-02-01T02:24:05;12.38;;;9.35;;
50851;SDS011;43953;45.508;-122.806;2023-02-01T02:35:26;13.23;;;9.50;;
50851;SDS011;43953;45.508;-122.806;2023-02-01T02:37:55;15.20;;;9.38;;
50851;SDS011;43953;45.508;-122.806;2023-02-01T02:39:16;12.77;;;9.43;;
50851;SDS011;43953;45.508;-122.806;2023-02-01T02:41:15;16.75;;;10.20;;
50851;SDS011;43953;45.508;-122.806;2023-02-01T02:42:14;13.75;;;9.98;;
50851;SDS011;43953;45.508;-122.806;2023-02-01T02:43:32;13.90;;;9.98;;
50851;SDS011;43953;45.508;-122.806;2023-02-01T02:44:54;15.10;;;9.68;;
50851;SDS011;43953;45.508;-122.806;2023-02-01T02:46:40;15.43;;;9.77;;
50851;SDS011;43953;45.508;-122.806;2023-02-01T02:48:27;11.43;;;8.73;;
50851;SDS011;43953;45.508;-122.806;2023-02-01T02:49:16;13.85;;;9.68;;
50851;SDS011;43953;45.508;-122.806;2023-02-01T02:52:46;16.33;;;10.55;;
50851;SDS011;43953;45.508;-122.806;2023-02-01T02:54:46;13.63;;;9.90;;
50851;SDS011;43953;45.508;-122.806;2023-02-01T02:55:23;14.02;;;10.10;;
50851;SDS011;43953;45.508;-122.806;2023-02-01T02:55:57;14.50;;;10.55;;
50851;SDS011;43953;45.508;-122.806;2023-02-01T02:56:49;15.02;;;10.90;;
50851;SDS011;43953;45.508;-122.806;2023-02-01T02:57:41;15.60;;;10.32;;
50851;SDS011;43953;45.508;-122.806;2023-02-01T02:58:34;15.00;;;10.27;;
50851;SDS011;43953;45.508;-122.806;2023-02-01T02:59:24;16.75;;;10.50;;
50851;SDS011;43953;45.508;-122.806;2023-02-01T03:00:22;16.17;;;11.73;;
50851;SDS011;43953;45.508;-122.806;2023-02-01T03:01:17;14.27;;;10.85;;
50851;SDS011;43953;45.508;-122.806;2023-02-01T03:02:07;16.58;;;10.18;;
50851;SDS011;43953;45.508;-122.806;2023-02-01T03:02:58;16.30;;;11.60;;
50851;SDS011;43953;45.508;-122.806;2023-02-01T03:03:48;17.45;;;11.75;;
50851;SDS011;43953;45.508;-122.806;2023-02-01T03:04:39;17.25;;;11.18;;
50851;SDS011;43953;45.508;-122.806;2023-02-01T03:05:11;19.45;;;11.88;;
50851;SDS011;43953;45.508;-122.806;2023-02-01T03:05:44;16.40;;;12.55;;
50851;SDS011;43953;45.508;-122.806;2023-02-01T03:06:19;20.95;;;12.35;;
50851;SDS011;43953;45.508;-122.806;2023-02-01T03:06:53;17.63;;;12.52;;
50851;SDS011;43953;45.508;-122.806;2023-02-01T03:08:16;21.10;;;12.82;;
50851;SDS011;43953;45.508;-122.806;2023-02-01T03:08:50;18.50;;;13.75;;
50851;SDS011;43953;45.508;-122.806;2023-02-01T03:10:07;19.98;;;14.55;;
50851;SDS011;43953;45.508;-122.806;2023-02-01T03:11:36;23.27;;;15.05;;
50851;SDS011;43953;45.508;-122.806;2023-02-01T03:12:30;23.13;;;15.27;;
50851;SDS011;43953;45.508;-122.806;2023-02-01T03:14:18;21.98;;;14.75;;
50851;SDS011;43953;45.508;-122.806;2023-02-01T03:14:53;24.33;;;15.52;;
50851;SDS011;43953;45.508;-122.806;2023-02-01T03:16:35;21.95;;;15.73;;
50851;SDS011;43953;45.508;-122.806;2023-02-01T03:17:10;20.90;;;16.23;;
50851;SDS011;43953;45.508;-122.806;2023-02-01T03:17:44;25.77;;;15.93;;
50851;SDS011;43953;45.508;-122.806;2023-02-01T03:18:19;22.45;;;15.70;;
50851;SDS011;43953;45.508;-122.806;2023-02-01T03:19:39;23.48;;;16.65;;
50851;SDS011;43953;45.508;-122.806;2023-02-01T03:20:19;25.67;;;15.55;;
50851;SDS011;43953;45.508;-122.806;2023-02-01T03:20:51;25.73;;;17.15;;
50851;SDS011;43953;45.508;-122.806;2023-02-01T03:21:26;21.13;;;15.32;;
50851;SDS011;43953;45.508;-122.806;2023-02-01T03:22:06;27.05;;;16.50;;
50851;SDS011;43953;45.508;-122.806;2023-02-01T03:22:43;24.30;;;15.77;;
50851;SDS011;43953;45.508;-122.806;2023-02-01T03:23:19;23.52;;;15.98;;
50851;SDS011;43953;45.508;-122.806;2023-02-01T03:23:55;21.63;;;15.43;;
50851;SDS011;43953;45.508;-122.806;2023-02-01T03:25:07;23.88;;;15.93;;
50851;SDS011;43953;45.508;-122.806;2023-02-01T03:25:45;23.05;;;15.85;;
50851;SDS011;43953;45.508;-122.806;2023-02-01T03:26:21;23.70;;;16.00;;
50851;SDS011;43953;45.508;-122.806;2023-02-01T03:26:55;22.45;;;14.88;;
50851;SDS011;43953;45.508;-122.806;2023-02-01T03:28:29;21.77;;;15.10;;
50851;SDS011;43953;45.508;-122.806;2023-02-01T03:29:11;24.20;;;15.32;;
50851;SDS011;43953;45.508;-122.806;2023-02-01T03:30:02;25.05;;;15.10;;
50851;SDS011;43953;45.508;-122.806;2023-02-01T03:30:56;22.65;;;14.43;;
50851;SDS011;43953;45.508;-122.806;2023-02-01T03:31:29;26.90;;;15.68;;
50851;SDS011;43953;45.508;-122.806;2023-02-01T03:32:01;29.13;;;16.00;;
50851;SDS011;43953;45.508;-122.806;2023-02-01T03:32:33;22.58;;;15.35;;
50851;SDS011;43953;45.508;-122.806;2023-02-01T03:33:26;22.23;;;15.45;;
50851;SDS011;43953;45.508;-122.806;2023-02-01T03:34:00;23.77;;;16.70;;
50851;SDS011;43953;45.508;-122.806;2023-02-01T03:34:32;22.88;;;15.43;;
50851;SDS011;43953;45.508;-122.806;2023-02-01T03:35:04;23.10;;;16.45;;
50851;SDS011;43953;45.508;-122.806;2023-02-01T03:36:59;24.02;;;15.70;;
50851;SDS011;43953;45.508;-122.806;2023-02-01T03:37:30;27.02;;;16.02;;
50851;SDS011;43953;45.508;-122.806;2023-02-01T03:38:45;21.10;;;15.57;;
50851;SDS011;43953;45.508;-122.806;2023-02-01T03:39:39;23.17;;;16.00;;
50851;SDS011;43953;45.508;-122.806;2023-02-01T03:40:18;22.02;;;15.30;;
50851;SDS011;43953;45.508;-122.806;2023-02-01T03:41:02;22.10;;;15.93;;
50851;SDS011;43953;45.508;-122.806;2023-02-01T03:41:58;20.90;;;14.45;;
50851;SDS011;43953;45.508;-122.806;2023-02-01T03:42:37;22.08;;;15.52;;
50851;SDS011;43953;45.508;-122.806;2023-02-01T03:43:14;20.63;;;14.80;;
50851;SDS011;43953;45.508;-122.806;2023-02-01T03:44:45;23.23;;;15.40;;
50851;SDS011;43953;45.508;-122.806;2023-02-01T03:45:33;23.15;;;15.88;;
50851;SDS011;43953;45.508;-122.806;2023-02-01T03:46:14;25.35;;;15.13;;
50851;SDS011;43953;45.508;-122.806;2023-02-01T03:46:53;21.40;;;15.65;;
50851;SDS011;43953;45.508;-122.806;2023-02-01T03:47:30;23.70;;;16.15;;
50851;SDS011;43953;45.508;-122.806;2023-02-01T03:48:08;29.75;;;15.40;;
50851;SDS011;43953;45.508;-122.806;2023-02-01T03:48:41;22.38;;;14.07;;
50851;SDS011;43953;45.508;-122.806;2023-02-01T03:49:17;22.38;;;15.27;;
50851;SDS011;43953;45.508;-122.806;2023-02-01T03:50:01;25.73;;;16.80;;
50851;SDS011;43953;45.508;-122.806;2023-02-01T03:50:39;23.85;;;16.55;;
50851;SDS011;43953;45.508;-122.806;2023-02-01T03:51:17;21.70;;;15.15;;
50851;SDS011;43953;45.508;-122.806;2023-02-01T03:51:51;20.08;;;15.65;;
50851;SDS011;43953;45.508;-122.806;2023-02-01T03:52:29;22.15;;;15.23;;
50851;SDS011;43953;45.508;-122.806;2023-02-01T03:53:14;24.10;;;15.90;;
50851;SDS011;43953;45.508;-122.806;2023-02-01T03:53:48;23.85;;;16.35;;
50851;SDS011;43953;45.508;-122.806;2023-02-01T03:54:24;22.85;;;15.38;;
50851;SDS011;43953;45.508;-122.806;2023-02-01T03:54:58;24.02;;;15.55;;
50851;SDS011;43953;45.508;-122.806;2023-02-01T03:55:30;22.20;;;15.25;;
50851;SDS011;43953;45.508;-122.806;2023-02-01T03:56:04;23.83;;;15.68;;
50851;SDS011;43953;45.508;-122.806;2023-02-01T03:56:37;21.05;;;15.23;;
50851;SDS011;43953;45.508;-122.806;2023-02-01T03:57:12;23.17;;;15.95;;
50851;SDS011;43953;45.508;-122.806;2023-02-01T03:58:40;22.50;;;15.32;;
50851;SDS011;43953;45.508;-122.806;2023-02-01T03:59:12;21.42;;;15.48;;
50851;SDS011;43953;45.508;-122.806;2023-02-01T03:59:45;23.33;;;15.82;;